Miami — WDF6958 — position and weather

sailwx.info

Track history (hours):
 
Tides and Currents Weather Stations Pressure Air Temp Water Temp Dewpoint Dewpoint Depression Visibility Wind Speed Wind Dir Waves Ship Positions

Miami

Owner: Kirby Inland Marine LP, Houston, TX. More information available from US FCC via Universal Licensing System and Coast Guard Vessel Documentation Center.

Last reported at 2014-Oct-20 17:34 UTC. Time now 2014-Oct-21 08:46 UTC.
Position N 25°46' W 080°09'.

Length 23 m; draft 4 m.

Type: Other ship. MMSI: 367479630.

Date/timePositionNaut miles runAvg speedWind from/ knotsBaromVisibWave heightAir tempDewpointWater temp
2014-Oct-20 17:34N 25°46' W 080°09'0 0.0
2014-Oct-20 16:33N 25°46' W 080°09'1 0.1
2014-Oct-20 09:14N 25°46' W 080°08'1 0.0
2014-Oct-19 19:17N 25°46' W 080°09'0 0.0
2014-Oct-19 16:15N 25°46' W 080°09'2 1.8
2014-Oct-19 15:17N 25°47' W 080°10'0 0.0
2014-Oct-19 12:32N 25°47' W 080°10'1 0.8
2014-Oct-19 11:31N 25°46' W 080°09'1 1.0
2014-Oct-19 10:34N 25°46' W 080°08'2 0.1
2014-Oct-18 19:25N 25°47' W 080°11'0 0.0
2014-Oct-18 17:28N 25°47' W 080°11'0 0.4
2014-Oct-18 16:33N 25°47' W 080°10'0 0.0
2014-Oct-18 13:29N 25°47' W 080°10'0 0.0
2014-Oct-17 19:28N 25°47' W 080°10'2 1.3
2014-Oct-17 18:17N 25°46' W 080°09'2 1.9
2014-Oct-17 17:05N 25°47' W 080°11'0 0.0
2014-Oct-17 16:34N 25°47' W 080°11'0 0.0
2014-Oct-17 15:33N 25°47' W 080°11'0 0.0
2014-Oct-17 14:33N 25°47' W 080°11'2 0.1
2014-Oct-16 19:03N 25°46' W 080°09'2 0.1
2014-Oct-15 23:16N 25°47' W 080°11'0 0.0
2014-Oct-15 22:32N 25°47' W 080°11'0 0.0
2014-Oct-15 21:33N 25°47' W 080°11'0 0.0
2014-Oct-15 19:32N 25°47' W 080°11'0 0.0
2014-Oct-15 18:33N 25°47' W 080°11'0 0.0
2014-Oct-15 17:33N 25°47' W 080°11'0 0.0
2014-Oct-15 16:33N 25°47' W 080°11'0 0.0
2014-Oct-15 15:32N 25°47' W 080°11'2 1.0
2014-Oct-15 13:20N 25°46' W 080°09'2 1.3
2014-Oct-15 11:33N 25°47' W 080°11'2 0.1
2014-Oct-13 20:11N 25°46' W 080°09'0 0.2
2014-Oct-13 19:26N 25°46' W 080°09'1 0.9
2014-Oct-13 18:09N 25°46' W 080°10'1 0.2
2014-Oct-13 15:23N 25°47' W 080°10'2 0.7
2014-Oct-13 12:29N 25°46' W 080°09'0 0.0
2014-Oct-11 19:16N 25°46' W 080°09'1 0.8
2014-Oct-11 18:05N 25°46' W 080°09'1 1.2
2014-Oct-11 17:23N 25°46' W 080°09'2 1.8
2014-Oct-11 16:30N 25°47' W 080°10'0 0.0
2014-Oct-11 15:33N 25°47' W 080°10'0 0.0
2014-Oct-11 14:33N 25°47' W 080°10'0 0.2
2014-Oct-11 13:31N 25°47' W 080°11'0 0.0
2014-Oct-11 12:33N 25°47' W 080°11'0 0.2
2014-Oct-11 11:33N 25°47' W 080°10'  
Track history (hours):
 
Tides and Currents Weather Stations Pressure Air Temp Water Temp Dewpoint Dewpoint Depression Visibility Wind Speed Wind Dir Waves Ship Positions

Miami

Owner: Kirby Inland Marine LP, Houston, TX. More information available from US FCC via Universal Licensing System and Coast Guard Vessel Documentation Center.

Last reported at 2014-Oct-20 17:34 UTC. Time now 2014-Oct-21 08:46 UTC.
Position N 25°46' W 080°09'.

Length 23 m; draft 4 m.

Type: Other ship. MMSI: 367479630.

Date/timePositionNaut miles runAvg speedWind from/ knotsBaromVisibWave heightAir tempDewpointWater temp
2014-Oct-20 17:34N 25°46' W 080°09'0 0.0
2014-Oct-20 16:33N 25°46' W 080°09'1 0.1
2014-Oct-20 09:14N 25°46' W 080°08'1 0.0
2014-Oct-19 19:17N 25°46' W 080°09'0 0.0
2014-Oct-19 16:15N 25°46' W 080°09'2 1.8
2014-Oct-19 15:17N 25°47' W 080°10'0 0.0
2014-Oct-19 12:32N 25°47' W 080°10'1 0.8
2014-Oct-19 11:31N 25°46' W 080°09'1 1.0
2014-Oct-19 10:34N 25°46' W 080°08'2 0.1
2014-Oct-18 19:25N 25°47' W 080°11'0 0.0
2014-Oct-18 17:28N 25°47' W 080°11'0 0.4
2014-Oct-18 16:33N 25°47' W 080°10'0 0.0
2014-Oct-18 13:29N 25°47' W 080°10'0 0.0
2014-Oct-17 19:28N 25°47' W 080°10'2 1.3
2014-Oct-17 18:17N 25°46' W 080°09'2 1.9
2014-Oct-17 17:05N 25°47' W 080°11'0 0.0
2014-Oct-17 16:34N 25°47' W 080°11'0 0.0
2014-Oct-17 15:33N 25°47' W 080°11'0 0.0
2014-Oct-17 14:33N 25°47' W 080°11'2 0.1
2014-Oct-16 19:03N 25°46' W 080°09'2 0.1
2014-Oct-15 23:16N 25°47' W 080°11'0 0.0
2014-Oct-15 22:32N 25°47' W 080°11'0 0.0
2014-Oct-15 21:33N 25°47' W 080°11'0 0.0
2014-Oct-15 19:32N 25°47' W 080°11'0 0.0
2014-Oct-15 18:33N 25°47' W 080°11'0 0.0
2014-Oct-15 17:33N 25°47' W 080°11'0 0.0
2014-Oct-15 16:33N 25°47' W 080°11'0 0.0
2014-Oct-15 15:32N 25°47' W 080°11'2 1.0
2014-Oct-15 13:20N 25°46' W 080°09'2 1.3
2014-Oct-15 11:33N 25°47' W 080°11'2 0.1
2014-Oct-13 20:11N 25°46' W 080°09'0 0.2
2014-Oct-13 19:26N 25°46' W 080°09'1 0.9
2014-Oct-13 18:09N 25°46' W 080°10'1 0.2
2014-Oct-13 15:23N 25°47' W 080°10'2 0.7
2014-Oct-13 12:29N 25°46' W 080°09'0 0.0
2014-Oct-11 19:16N 25°46' W 080°09'1 0.8
2014-Oct-11 18:05N 25°46' W 080°09'1 1.2
2014-Oct-11 17:23N 25°46' W 080°09'2 1.8
2014-Oct-11 16:30N 25°47' W 080°10'0 0.0
2014-Oct-11 15:33N 25°47' W 080°10'0 0.0
2014-Oct-11 14:33N 25°47' W 080°10'0 0.2
2014-Oct-11 13:31N 25°47' W 080°11'0 0.0
2014-Oct-11 12:33N 25°47' W 080°11'0 0.2
2014-Oct-11 11:33N 25°47' W 080°10'  

Dump ship's entire track history